createdAt,value
2022-09-23T00:01:07.581Z,101919.88
2022-09-23T00:03:35.453Z,101915.69
2022-09-23T00:06:07.225Z,101916.31
2022-09-23T00:14:16.992Z,101910.13
2022-09-23T00:16:43.612Z,101904.31
2022-09-23T00:19:10.224Z,101912.78
2022-09-23T00:21:36.777Z,101913.50
2022-09-23T00:24:03.594Z,101911.56
2022-09-23T00:26:30.161Z,101907.94
2022-09-23T00:28:56.737Z,101902.66
2022-09-23T00:31:26.007Z,101898.97
2022-09-23T00:33:57.363Z,101897.38
2022-09-23T00:36:24.914Z,101905.16
2022-09-23T00:38:51.804Z,101897.06
2022-09-23T00:41:18.499Z,101891.66
2022-09-23T00:43:52.865Z,101889.03
2022-09-23T00:46:19.455Z,101882.91
2022-09-23T00:48:46.740Z,101882.91
2022-09-23T00:51:17.947Z,101878.28
2022-09-23T00:53:47.384Z,101878.56
2022-09-23T00:56:14.275Z,101880.19
2022-09-23T00:58:42.932Z,101878.00
2022-09-23T01:01:09.652Z,101878.72
2022-09-23T01:03:36.329Z,101876.41
2022-09-23T01:06:02.961Z,101871.97
2022-09-23T01:08:31.243Z,101871.00
2022-09-23T01:11:02.748Z,101871.81
2022-09-23T01:13:57.088Z,101868.06
2022-09-23T01:17:01.002Z,101866.28
2022-09-23T01:20:01.029Z,101867.63
2022-09-23T01:23:01.565Z,101864.69
2022-09-23T01:26:12.971Z,101854.44
2022-09-23T01:29:02.315Z,101855.97
2022-09-23T01:31:45.452Z,101850.81
2022-09-23T01:34:15.989Z,101853.97
2022-09-23T01:36:48.610Z,101850.22
2022-09-23T01:39:37.353Z,101847.81
2022-09-23T01:42:22.305Z,101839.25
2022-09-23T01:44:54.187Z,101841.88
2022-09-23T01:47:40.184Z,101834.94
2022-09-23T01:50:28.994Z,101834.94
2022-09-23T01:53:01.717Z,101837.06
2022-09-23T01:55:31.449Z,101833.34
2022-09-23T01:58:13.276Z,101837.88
2022-09-23T02:00:43.473Z,101839.25
2022-09-23T02:03:50.097Z,101831.75
2022-09-23T02:06:22.838Z,101828.13
2022-09-23T02:09:00.403Z,101822.19
2022-09-23T02:11:27.573Z,101823.13
2022-09-23T02:13:57.896Z,101827.44
2022-09-23T02:16:39.953Z,101822.19
2022-09-23T02:19:22.568Z,101824.81
2022-09-23T02:22:04.271Z,101820.66
2022-09-23T02:27:39.757Z,101809.94
2022-09-23T02:30:22.142Z,101815.50
2022-09-23T02:32:55.086Z,101811.88
2022-09-23T02:35:33.321Z,101810.91
2022-09-23T02:38:11.778Z,101806.63
2022-09-23T02:40:47.870Z,101803.72
2022-09-23T02:43:33.902Z,101803.84
2022-09-23T02:46:01.361Z,101799.69
2022-09-23T02:48:35.952Z,101798.69
2022-09-23T02:51:03.714Z,101794.66
2022-09-23T02:53:33.847Z,101792.28
2022-09-23T02:56:01.454Z,101788.53
2022-09-23T02:58:28.914Z,101782.31
2022-09-23T03:00:58.533Z,101783.69
2022-09-23T03:03:43.904Z,101780.19
2022-09-23T03:06:20.875Z,101787.56
2022-09-23T03:09:19.044Z,101781.31
2022-09-23T03:11:50.270Z,101774.25
2022-09-23T03:14:19.873Z,101774.25
2022-09-23T03:16:55.876Z,101773.25
2022-09-23T03:19:42.355Z,101775.22
2022-09-23T03:22:23.713Z,101774.63
2022-09-23T03:24:54.036Z,101775.84
2022-09-23T03:27:24.161Z,101773.09
2022-09-23T03:29:53.445Z,101766.84
2022-09-23T03:32:23.276Z,101761.72
2022-09-23T03:34:51.932Z,101768.38
2022-09-23T03:37:24.479Z,101761.97
2022-09-23T03:40:08.515Z,101761.94
2022-09-23T03:42:36.704Z,101761.13
2022-09-23T03:45:08.357Z,101756.78
2022-09-23T03:47:35.347Z,101759.00
2022-09-23T03:50:02.079Z,101753.66
2022-09-23T03:52:28.987Z,101750.59
2022-09-23T03:54:55.584Z,101756.72
2022-09-23T03:57:23.734Z,101754.50
2022-09-23T03:59:50.868Z,101745.91
2022-09-23T04:02:18.910Z,101740.09
2022-09-23T04:04:45.932Z,101738.03
2022-09-23T04:07:13.333Z,101731.78
2022-09-23T04:09:40.227Z,101735.13
2022-09-23T04:12:07.104Z,101734.03
2022-09-23T04:14:33.725Z,101730.69
2022-09-23T04:17:00.326Z,101735.38
2022-09-23T04:19:26.952Z,101730.50
2022-09-23T04:21:53.565Z,101737.47
2022-09-23T04:24:20.505Z,101731.78
2022-09-23T04:26:51.466Z,101730.25
2022-09-23T04:29:18.193Z,101727.63
2022-09-23T04:31:44.959Z,101732.78
2022-09-23T04:34:12.281Z,101728.34
2022-09-23T04:36:38.866Z,101728.47
2022-09-23T04:39:05.806Z,101729.50
2022-09-23T04:41:32.494Z,101722.97
2022-09-23T04:43:59.119Z,101720.06
2022-09-23T04:46:25.807Z,101728.09
2022-09-23T04:48:52.420Z,101726.31
2022-09-23T04:51:22.780Z,101726.56
2022-09-23T04:53:50.392Z,101727.81
2022-09-23T04:56:26.328Z,101730.56
2022-09-23T04:58:53.885Z,101720.03
2022-09-23T05:01:27.501Z,101726.41
2022-09-23T05:03:57.888Z,101721.09
2022-09-23T05:06:25.500Z,101718.59
2022-09-23T05:08:56.072Z,101724.06
2022-09-23T05:11:23.295Z,101719.47
2022-09-23T05:13:51.616Z,101728.09
2022-09-23T05:16:18.686Z,101720.03
2022-09-23T05:18:46.413Z,101723.50
2022-09-23T05:21:15.678Z,101712.84
2022-09-23T05:23:43.163Z,101722.16
2022-09-23T05:26:11.486Z,101717.69
2022-09-23T05:28:39.440Z,101720.50
2022-09-23T05:31:20.292Z,101722.41
2022-09-23T05:33:52.711Z,101726.69
2022-09-23T05:36:21.352Z,101725.47
2022-09-23T05:38:50.074Z,101724.72
2022-09-23T05:41:18.165Z,101728.59
2022-09-23T05:43:45.090Z,101723.31
2022-09-23T05:46:14.087Z,101726.69
2022-09-23T05:48:42.442Z,101728.47
2022-09-23T05:51:13.300Z,101723.06
2022-09-23T05:53:42.706Z,101717.81
2022-09-23T05:56:09.393Z,101721.84
2022-09-23T05:58:36.009Z,101721.00
2022-09-23T06:01:09.682Z,101719.09
2022-09-23T06:03:36.447Z,101718.97
2022-09-23T06:06:03.098Z,101717.97
2022-09-23T06:08:29.692Z,101721.00
2022-09-23T06:10:56.387Z,101718.19
2022-09-23T06:13:22.974Z,101726.94
2022-09-23T06:15:50.131Z,101728.59
2022-09-23T06:18:17.321Z,101716.69
2022-09-23T06:20:43.877Z,101721.97
2022-09-23T06:23:11.497Z,101727.69
2022-09-23T06:25:41.561Z,101718.78
2022-09-23T06:28:12.218Z,101724.78
2022-09-23T06:30:42.632Z,101726.81
2022-09-23T06:33:10.110Z,101725.16
2022-09-23T06:35:36.990Z,101722.84
2022-09-23T06:38:04.789Z,101723.81
2022-09-23T06:40:31.808Z,101729.81
2022-09-23T06:42:59.582Z,101724.25
2022-09-23T06:45:27.211Z,101719.84
2022-09-23T06:47:58.229Z,101720.53
2022-09-23T06:50:26.655Z,101719.56
2022-09-23T06:52:56.859Z,101726.38
2022-09-23T06:55:24.859Z,101719.19
2022-09-23T06:57:51.486Z,101720.16
2022-09-23T07:00:18.457Z,101724.44
2022-09-23T07:02:45.741Z,101716.66
2022-09-23T07:05:12.661Z,101722.78
2022-09-23T07:07:39.447Z,101718.47
2022-09-23T07:10:06.915Z,101719.88
2022-09-23T07:12:34.127Z,101718.75
2022-09-23T07:15:00.770Z,101725.97
2022-09-23T07:17:27.660Z,101722.25
2022-09-23T07:19:57.397Z,101727.38
2022-09-23T07:22:25.825Z,101729.03
2022-09-23T07:24:56.347Z,101728.50
2022-09-23T07:27:27.319Z,101732.53
2022-09-23T07:29:54.857Z,101730.84
2022-09-23T07:32:23.098Z,101726.28
2022-09-23T07:34:50.002Z,101728.50
2022-09-23T07:37:17.352Z,101728.94
2022-09-23T07:39:45.110Z,101733.13
2022-09-23T07:42:13.502Z,101729.63
2022-09-23T07:44:44.667Z,101731.88
2022-09-23T07:47:11.489Z,101723.81
2022-09-23T07:49:38.459Z,101728.81
2022-09-23T07:52:05.407Z,101738.13
2022-09-23T07:54:32.218Z,101734.38
2022-09-23T07:56:59.728Z,101734.38
2022-09-23T07:59:27.278Z,101734.78
2022-09-23T08:01:54.463Z,101726.63
2022-09-23T08:04:26.696Z,101725.50
2022-09-23T08:06:55.773Z,101727.75
2022-09-23T08:09:25.328Z,101731.06
2022-09-23T08:11:52.534Z,101730.09
2022-09-23T08:14:19.491Z,101732.34
2022-09-23T08:16:47.720Z,101725.94
2022-09-23T08:19:14.894Z,101728.31
2022-09-23T08:21:42.057Z,101720.09
2022-09-23T08:24:12.650Z,101724.41
2022-09-23T08:26:39.293Z,101725.25
2022-09-23T08:29:09.803Z,101715.41
2022-09-23T08:31:36.490Z,101716.34
2022-09-23T08:34:03.485Z,101720.25
2022-09-23T08:36:31.252Z,101720.94
2022-09-23T08:38:58.161Z,101723.59
2022-09-23T08:41:48.752Z,101712.19
2022-09-23T08:44:20.304Z,101713.03
2022-09-23T08:47:11.314Z,101709.69
2022-09-23T08:49:49.145Z,101711.22
2022-09-23T08:52:23.466Z,101702.16
2022-09-23T08:54:55.139Z,101703.00
2022-09-23T08:58:24.540Z,101698.41
2022-09-23T09:01:04.011Z,101693.97
2022-09-23T09:03:35.915Z,101688.25
2022-09-23T09:06:03.033Z,101703.00
2022-09-23T09:08:33.768Z,101693.28
2022-09-23T09:11:00.863Z,101689.66
2022-09-23T09:13:35.457Z,101680.06
2022-09-23T09:16:48.345Z,101680.91
2022-09-23T09:19:32.358Z,101690.38
2022-09-23T09:21:59.185Z,101682.34
2022-09-23T09:24:34.507Z,101681.75
2022-09-23T09:27:05.904Z,101679.13
2022-09-23T09:29:38.985Z,101675.34
2022-09-23T09:32:48.466Z,101671.06
2022-09-23T09:35:36.804Z,101658.38
2022-09-23T09:38:04.276Z,101661.56
2022-09-23T09:40:30.958Z,101658.13
2022-09-23T09:42:57.919Z,101657.00
2022-09-23T09:45:57.591Z,101646.81
2022-09-23T09:49:03.779Z,101650.72
2022-09-23T09:51:30.476Z,101649.97
2022-09-23T09:54:17.379Z,101651.63
2022-09-23T09:56:44.942Z,101645.94
2022-09-23T09:59:17.303Z,101644.09
2022-09-23T10:01:44.163Z,101635.09
2022-09-23T10:04:21.859Z,101644.22
2022-09-23T10:07:25.452Z,101636.69
2022-09-23T10:09:53.907Z,101627.41
2022-09-23T10:12:24.535Z,101628.50
2022-09-23T10:14:56.024Z,101636.84
2022-09-23T10:17:35.520Z,101635.59
2022-09-23T10:20:08.221Z,101630.13
2022-09-23T10:22:39.090Z,101627.19
2022-09-23T10:25:16.435Z,101620.13
2022-09-23T10:27:45.597Z,101618.13
2022-09-23T10:30:15.317Z,101618.41
2022-09-23T10:32:45.017Z,101613.97
2022-09-23T10:35:15.238Z,101620.34
2022-09-23T10:37:45.441Z,101613.88
2022-09-23T10:40:37.858Z,101606.50
2022-09-23T10:43:47.513Z,101616.06
2022-09-23T10:46:47.686Z,101606.50
2022-09-23T10:49:26.386Z,101606.88
2022-09-23T10:52:31.880Z,101608.22
2022-09-23T10:55:39.319Z,101603.63
2022-09-23T10:58:22.098Z,101603.31
2022-09-23T11:01:18.689Z,101593.28
2022-09-23T11:03:45.959Z,101595.63
2022-09-23T11:06:31.948Z,101594.78
2022-09-23T11:09:26.820Z,101580.75
2022-09-23T11:12:10.701Z,101586.69
2022-09-23T11:15:07.616Z,101582.53
2022-09-23T11:18:12.627Z,101585.19
2022-09-23T11:20:57.336Z,101572.34
2022-09-23T11:24:14.543Z,101577.78
2022-09-23T11:27:17.704Z,101564.84
2022-09-23T11:30:00.542Z,101566.69
2022-09-23T11:32:40.323Z,101563.88
2022-09-23T11:35:20.506Z,101560.56
2022-09-23T11:38:10.869Z,101553.91
2022-09-23T11:40:43.936Z,101557.53
2022-09-23T11:43:21.720Z,101542.44
2022-09-23T11:45:56.472Z,101541.16
2022-09-23T11:48:33.711Z,101542.44
2022-09-23T11:51:03.799Z,101532.66
2022-09-23T11:54:00.450Z,101530.88
2022-09-23T11:56:37.011Z,101523.06
2022-09-23T11:59:16.742Z,101527.22
2022-09-23T12:01:49.920Z,101522.22
2022-09-23T12:04:29.178Z,101521.94
2022-09-23T12:07:04.287Z,101521.44
2022-09-23T12:09:57.673Z,101511.13
2022-09-23T12:12:35.457Z,101511.97
2022-09-23T12:15:28.088Z,101502.59
2022-09-23T12:18:22.980Z,101511.38
2022-09-23T12:21:02.509Z,101509.88
2022-09-23T12:23:47.959Z,101504.28
2022-09-23T12:26:20.718Z,101497.16
2022-09-23T12:28:50.204Z,101499.53
2022-09-23T12:31:30.544Z,101496.72
2022-09-23T12:33:59.744Z,101492.25
2022-09-23T12:36:30.132Z,101494.22
2022-09-23T12:39:05.683Z,101481.69
2022-09-23T12:41:38.946Z,101484.66
2022-09-23T12:44:12.889Z,101484.66
2022-09-23T12:46:43.581Z,101476.16
2022-09-23T12:49:28.194Z,101478.75
2022-09-23T12:52:13.590Z,101474.59
2022-09-23T12:54:41.471Z,101476.25
2022-09-23T12:57:12.093Z,101467.88
2022-09-23T12:59:57.279Z,101467.09
2022-09-23T13:02:28.336Z,101469.81
2022-09-23T13:05:38.099Z,101463.84
2022-09-23T13:08:12.711Z,101457.25
2022-09-23T13:10:46.627Z,101460.50
2022-09-23T13:13:20.461Z,101458.63
2022-09-23T13:15:47.269Z,101445.53
2022-09-23T13:18:22.633Z,101454.13
2022-09-23T13:20:54.149Z,101442.97
2022-09-23T13:23:22.483Z,101449.44
2022-09-23T13:25:51.566Z,101438.81
2022-09-23T13:28:47.435Z,101438.22
2022-09-23T13:31:16.844Z,101447.44
2022-09-23T13:33:53.204Z,101432.69
2022-09-23T13:36:21.141Z,101429.25
2022-09-23T13:38:48.350Z,101420.84
2022-09-23T13:41:20.226Z,101419.56
2022-09-23T13:43:58.764Z,101416.84
2022-09-23T13:46:42.870Z,101414.22
2022-09-23T13:49:22.292Z,101406.56
2022-09-23T13:51:55.909Z,101415.50
2022-09-23T13:54:46.850Z,101410.22
2022-09-23T13:57:33.869Z,101403.31
2022-09-23T14:00:17.712Z,101393.91
2022-09-23T14:02:45.472Z,101392.78
2022-09-23T14:05:14.368Z,101389.19
2022-09-23T14:07:41.032Z,101380.56
2022-09-23T14:10:08.107Z,101382.59
2022-09-23T14:12:39.356Z,101386.25
2022-09-23T14:15:07.291Z,101379.97
2022-09-23T14:17:33.927Z,101386.53
2022-09-23T14:20:01.138Z,101388.78
2022-09-23T14:22:29.036Z,101381.72
2022-09-23T14:24:56.643Z,101372.34
2022-09-23T14:27:36.493Z,101377.09
2022-09-23T14:30:04.156Z,101365.78
2022-09-23T14:32:32.493Z,101372.50
2022-09-23T14:35:05.015Z,101366.69
2022-09-23T14:37:57.949Z,101368.13
2022-09-23T14:40:28.719Z,101361.88
2022-09-23T14:43:18.254Z,101356.59
2022-09-23T14:45:47.384Z,101350.91
2022-09-23T14:48:17.056Z,101349.63
2022-09-23T14:50:57.914Z,101350.31
2022-09-23T14:53:33.460Z,101350.81
2022-09-23T14:56:06.086Z,101351.34
2022-09-23T14:58:52.849Z,101345.41
2022-09-23T15:01:27.903Z,101346.56
2022-09-23T15:03:55.838Z,101350.00
2022-09-23T15:06:23.427Z,101344.03
2022-09-23T15:08:54.627Z,101337.44
2022-09-23T15:11:25.260Z,101340.06
2022-09-23T15:13:52.856Z,101342.38
2022-09-23T15:16:27.045Z,101342.78
2022-09-23T15:18:57.976Z,101342.28
2022-09-23T15:21:25.904Z,101346.94
2022-09-23T15:23:54.931Z,101347.06
2022-09-23T15:26:26.450Z,101350.19
2022-09-23T15:28:56.113Z,101349.53
2022-09-23T15:31:25.573Z,101342.72
2022-09-23T15:33:52.354Z,101343.53
2022-09-23T15:36:25.464Z,101339.25
2022-09-23T15:38:52.460Z,101338.59
2022-09-23T15:41:19.421Z,101343.88
2022-09-23T15:43:46.990Z,101334.94
2022-09-23T15:46:25.525Z,101331.47
2022-09-23T15:48:58.990Z,101335.94
2022-09-23T15:51:26.760Z,101333.28
2022-09-23T15:53:54.994Z,101332.44
2022-09-23T15:56:22.767Z,101328.31
2022-09-23T15:58:49.765Z,101327.47
2022-09-23T16:01:28.336Z,101330.09
2022-09-23T16:03:55.877Z,101333.59
2022-09-23T16:06:24.355Z,101334.44
2022-09-23T16:08:52.238Z,101336.91
2022-09-23T16:11:20.628Z,101326.16
2022-09-23T16:13:47.222Z,101326.16
2022-09-23T16:16:13.897Z,101326.31
2022-09-23T16:18:43.763Z,101324.00
2022-09-23T16:21:13.039Z,101325.66
2022-09-23T16:23:47.494Z,101329.97
2022-09-23T16:26:21.870Z,101326.66
2022-09-23T16:28:49.782Z,101327.66
2022-09-23T16:31:17.147Z,101325.00
2022-09-23T16:33:44.862Z,101326.50
2022-09-23T16:36:21.230Z,101326.50
2022-09-23T16:38:48.212Z,101317.88
2022-09-23T16:41:15.013Z,101317.06
2022-09-23T16:43:41.980Z,101321.66
2022-09-23T16:46:12.239Z,101320.84
2022-09-23T16:48:40.596Z,101315.53
2022-09-23T16:51:20.095Z,101320.03
2022-09-23T16:53:49.328Z,101315.03
2022-09-23T16:56:17.667Z,101314.22
2022-09-23T16:58:44.852Z,101308.09
2022-09-23T17:01:36.026Z,101307.25
2022-09-23T17:04:03.787Z,101307.25
2022-09-23T17:06:30.475Z,101312.53
2022-09-23T17:08:57.100Z,101310.88
2022-09-23T17:11:23.770Z,101304.75
2022-09-23T17:13:50.724Z,101308.41
2022-09-23T17:16:26.404Z,101309.41
2022-09-23T17:18:55.497Z,101302.44
2022-09-23T17:21:26.623Z,101304.41
2022-09-23T17:23:57.673Z,101308.03
2022-09-23T17:26:25.654Z,101308.03
2022-09-23T17:28:54.387Z,101304.56
2022-09-23T17:31:24.865Z,101295.81
2022-09-23T17:33:52.836Z,101303.59
2022-09-23T17:36:20.207Z,101293.97
2022-09-23T17:38:48.280Z,101298.47
2022-09-23T17:41:15.661Z,101297.47
2022-09-23T17:43:42.255Z,101304.56
2022-09-23T17:46:11.388Z,101301.41
2022-09-23T17:48:41.352Z,101299.91
2022-09-23T17:51:11.634Z,101300.06
2022-09-23T17:53:39.214Z,101304.34
2022-09-23T17:56:08.334Z,101293.13
2022-09-23T17:58:36.792Z,101301.34
2022-09-23T18:01:04.871Z,101303.31
2022-09-23T18:03:32.116Z,101304.13
2022-09-23T18:06:13.701Z,101313.75
2022-09-23T18:08:41.955Z,101306.28
2022-09-23T18:11:18.949Z,101304.78
2022-09-23T18:13:53.673Z,101301.28
2022-09-23T18:16:21.936Z,101302.28
2022-09-23T18:18:56.318Z,101296.34
2022-09-23T18:21:24.486Z,101304.13
2022-09-23T18:23:51.244Z,101307.56
2022-09-23T18:26:19.881Z,101295.03
2022-09-23T18:28:48.134Z,101294.72
2022-09-23T18:31:15.433Z,101293.75
2022-09-23T18:33:42.152Z,101300.69
2022-09-23T18:36:08.959Z,101292.75
2022-09-23T18:38:35.733Z,101298.72
2022-09-23T18:41:02.417Z,101290.13
2022-09-23T18:43:37.207Z,101293.41
2022-09-23T18:46:12.346Z,101289.97
2022-09-23T18:48:57.996Z,101292.59
2022-09-23T18:51:26.192Z,101289.81
2022-09-23T18:53:57.594Z,101289.13
2022-09-23T18:56:26.720Z,101288.25
2022-09-23T18:58:54.750Z,101293.31
2022-09-23T19:01:22.770Z,101289.34
2022-09-23T19:03:55.073Z,101291.28
2022-09-23T19:06:22.656Z,101288.78
2022-09-23T19:08:53.557Z,101296.91
2022-09-23T19:11:21.953Z,101285.63
2022-09-23T19:13:56.733Z,101291.91
2022-09-23T19:16:23.898Z,101296.19
2022-09-23T19:18:51.204Z,101297.03
2022-09-23T19:21:20.696Z,101291.06
2022-09-23T19:23:49.489Z,101297.50
2022-09-23T19:26:24.835Z,101289.72
2022-09-23T19:28:53.283Z,101287.75
2022-09-23T19:31:23.012Z,101285.78
2022-09-23T19:33:57.404Z,101284.66
2022-09-23T19:36:31.774Z,101289.94
2022-09-23T19:39:04.836Z,101276.72
2022-09-23T19:41:33.344Z,101279.06
2022-09-23T19:44:07.642Z,101280.19
2022-09-23T19:46:39.035Z,101274.06
2022-09-23T19:49:06.747Z,101274.06
2022-09-23T19:51:34.311Z,101275.22
2022-09-23T19:54:01.685Z,101271.06
2022-09-23T19:56:29.106Z,101272.56
2022-09-23T19:58:57.293Z,101274.41
2022-09-23T20:01:25.852Z,101272.22
2022-09-23T20:03:53.361Z,101277.13
2022-09-23T20:06:20.576Z,101273.66
2022-09-23T20:08:47.956Z,101269.06
2022-09-23T20:11:24.850Z,101267.69
2022-09-23T20:13:59.420Z,101271.63
2022-09-23T20:16:26.767Z,101267.63
2022-09-23T20:18:54.165Z,101265.13
2022-09-23T20:21:20.743Z,101266.19
2022-09-23T20:23:47.468Z,101264.84
2022-09-23T20:26:32.849Z,101269.91
2022-09-23T20:29:02.485Z,101258.34
2022-09-23T20:31:29.304Z,101265.00
2022-09-23T20:33:59.852Z,101260.56
2022-09-23T20:36:27.956Z,101260.06
2022-09-23T20:39:00.474Z,101252.16
2022-09-23T20:41:31.409Z,101255.63
2022-09-23T20:44:01.482Z,101260.59
2022-09-23T20:46:28.925Z,101250.03
2022-09-23T20:48:56.167Z,101245.28
2022-09-23T20:51:24.051Z,101243.16
2022-09-23T20:53:52.896Z,101245.78
2022-09-23T20:56:20.907Z,101241.34
2022-09-23T20:58:48.701Z,101243.00
2022-09-23T21:01:15.992Z,101243.16
2022-09-23T21:03:45.561Z,101233.28
2022-09-23T21:06:16.513Z,101233.09
2022-09-23T21:08:44.667Z,101237.41
2022-09-23T21:11:13.560Z,101232.13
2022-09-23T21:13:40.212Z,101232.78
2022-09-23T21:16:10.028Z,101229.50
2022-09-23T21:18:37.383Z,101230.94
2022-09-23T21:21:05.212Z,101226.31
2022-09-23T21:23:35.712Z,101226.00
2022-09-23T21:26:11.112Z,101228.66
2022-09-23T21:28:44.718Z,101224.22
2022-09-23T21:31:25.670Z,101215.44
2022-09-23T21:33:56.651Z,101217.94
2022-09-23T21:36:24.779Z,101217.94
2022-09-23T21:38:52.245Z,101217.78
2022-09-23T21:41:19.771Z,101217.94
2022-09-23T21:43:46.578Z,101222.09
2022-09-23T21:46:14.750Z,101219.59
2022-09-23T21:48:42.254Z,101217.09
2022-09-23T21:51:11.958Z,101218.59
2022-09-23T21:53:39.600Z,101215.16
2022-09-23T21:56:19.611Z,101213.31
2022-09-23T21:58:47.224Z,101215.16
2022-09-23T22:01:21.333Z,101213.31
2022-09-23T22:03:54.835Z,101213.31
2022-09-23T22:06:27.081Z,101214.31
2022-09-23T22:08:55.676Z,101219.44
2022-09-23T22:11:42.015Z,101213.31
2022-09-23T22:14:11.870Z,101206.38
2022-09-23T22:16:39.119Z,101205.38
2022-09-23T22:19:09.347Z,101209.88
2022-09-23T22:21:38.775Z,101195.81
2022-09-23T22:24:07.677Z,101197.47
2022-09-23T22:26:36.591Z,101198.31
2022-09-23T22:29:22.892Z,101194.00
2022-09-23T22:32:08.309Z,101199.16
2022-09-23T22:34:51.816Z,101194.81
2022-09-23T22:37:21.682Z,101192.88
2022-09-23T22:39:48.295Z,101193.88
2022-09-23T22:42:14.981Z,101191.22
2022-09-23T22:44:41.810Z,101183.44
2022-09-23T22:47:09.578Z,101183.09
2022-09-23T22:49:36.446Z,101184.25
2022-09-23T22:52:04.117Z,101181.75
2022-09-23T22:54:34.010Z,101181.59
2022-09-23T22:57:04.178Z,101180.66
2022-09-23T22:59:31.011Z,101185.75
2022-09-23T23:01:59.934Z,101176.31
2022-09-23T23:04:27.204Z,101175.38
2022-09-23T23:06:53.810Z,101177.16
2022-09-23T23:09:20.390Z,101177.16
2022-09-23T23:11:47.323Z,101173.69
2022-09-23T23:14:16.242Z,101170.09
2022-09-23T23:16:43.905Z,101173.53
2022-09-23T23:19:13.879Z,101173.69
2022-09-23T23:21:44.970Z,101172.88
2022-09-23T23:24:20.120Z,101165.75
2022-09-23T23:26:47.447Z,101163.97
2022-09-23T23:29:15.515Z,101158.69
2022-09-23T23:31:42.454Z,101166.44
2022-09-23T23:34:13.135Z,101156.03
2022-09-23T23:36:41.546Z,101161.16
2022-09-23T23:39:08.219Z,101158.53
2022-09-23T23:41:34.825Z,101151.59
2022-09-23T23:44:01.699Z,101155.19
2022-09-23T23:46:30.704Z,101157.84
2022-09-23T23:48:57.602Z,101157.84
2022-09-23T23:51:26.483Z,101154.38
2022-09-23T23:53:54.192Z,101156.88
2022-09-23T23:56:22.681Z,101157.03
2022-09-23T23:58:56.774Z,101155.03
